Inicio METAR Ruta Wind Satelite

Informe Meteorológico

Fecha: 2021/09/21 14:46:54 Local
2021.09.21 19:46 UTC


Operación:
SKCZ 211900Z VRB01KT 9999 FEW030 29/24 Q1009 RMK A2979 =